Time;durP1;ratioP1;P1;durP2;ratioP2;P2;SDS_P1;SDS_P2;PMS_P1;PMS_P2;Temp;Humidity;BMP_temperature;BMP_pressure;BME280_temperature;BME280_humidity;BME280_pressure;Samples;Min_cycle;Max_cycle;Signal;HPM_P1;HPM_P2
2021/10/07 00:00:38;;;;;;;5.10;4.00;;;;;;;;;;4997096;28;20080;-70
2021/10/07 00:03:04;;;;;;;5.72;3.35;;;;;;;;;;4996650;28;20029;-71
2021/10/07 00:05:29;;;;;;;5.65;2.97;;;;;;;;;;5013751;28;20030;-71
2021/10/07 00:07:54;;;;;;;5.43;2.90;;;;;;;;;;5014180;28;20037;-71
2021/10/07 00:10:20;;;;;;;3.17;1.08;;;;;;;;;;5013536;28;20030;-71
2021/10/07 00:12:45;;;;;;;3.88;2.80;;;;;;;;;;4996200;28;20033;-71
2021/10/07 00:15:10;;;;;;;4.22;2.35;;;;;;;;;;5014046;28;20075;-71
2021/10/07 00:17:36;;;;;;;5.03;2.58;;;;;;;;;;4996817;28;20025;-71
2021/10/07 00:20:02;;;;;;;3.55;2.17;;;;;;;;;;4996281;28;20026;-70
2021/10/07 00:22:28;;;;;;;3.10;1.98;;;;;;;;;;5014036;28;20103;-70
2021/10/07 00:24:53;;;;;;;5.15;2.38;;;;;;;;;;4995366;28;20408;-70
2021/10/07 00:27:18;;;;;;;4.40;2.80;;;;;;;;;;5014337;28;20523;-70
2021/10/07 00:29:45;;;;;;;4.05;2.83;;;;;;;;;;4996443;28;20029;-70
2021/10/07 00:39:48;;;;;;;5.55;3.22;;;;;;;;;;5014116;28;20029;-70
2021/10/07 00:42:13;;;;;;;4.95;4.43;;;;;;;;;;4996389;28;20033;-70
2021/10/07 00:44:39;;;;;;;4.80;3.78;;;;;;;;;;5013535;28;20010;-70
2021/10/07 00:47:05;;;;;;;5.82;3.70;;;;;;;;;;4996262;28;20495;-70
2021/10/07 00:49:38;;;;;;;7.57;3.85;;;;;;;;;;5013106;28;20404;-70
2021/10/07 00:52:04;;;;;;;4.60;3.17;;;;;;;;;;5013239;28;20022;-70
2021/10/07 00:54:29;;;;;;;6.35;3.50;;;;;;;;;;5012037;28;20034;-70
2021/10/07 00:56:55;;;;;;;5.57;3.38;;;;;;;;;;5012548;28;20049;-70
2021/10/07 00:59:20;;;;;;;7.28;3.33;;;;;;;;;;4996046;28;20080;-69
2021/10/07 01:01:45;;;;;;;3.65;2.30;;;;;;;;;;4995409;28;20026;-70
2021/10/07 01:04:11;;;;;;;4.32;2.45;;;;;;;;;;5014536;28;20021;-69
2021/10/07 01:06:37;;;;;;;4.57;2.63;;;;;;;;;;4994417;28;20026;-69
2021/10/07 01:09:03;;;;;;;5.30;2.90;;;;;;;;;;5013484;28;20502;-69
2021/10/07 01:11:28;;;;;;;7.88;3.78;;;;;;;;;;5012972;28;20021;-69
2021/10/07 01:13:54;;;;;;;7.22;3.85;;;;;;;;;;5013692;28;20358;-69
2021/10/07 01:16:20;;;;;;;4.97;4.10;;;;;;;;;;5012347;28;20034;-69
2021/10/07 01:18:45;;;;;;;4.47;3.58;;;;;;;;;;4995438;28;20558;-70
2021/10/07 01:21:11;;;;;;;5.10;3.60;;;;;;;;;;5012543;28;20033;-70
2021/10/07 01:23:39;;;;;;;7.00;2.92;;;;;;;;;;5012830;28;20026;-71
2021/10/07 01:26:04;;;;;;;4.65;3.20;;;;;;;;;;4993601;28;20030;-69
2021/10/07 01:28:30;;;;;;;6.30;3.80;;;;;;;;;;5012578;28;20026;-70
2021/10/07 01:30:55;;;;;;;3.60;3.22;;;;;;;;;;5012764;28;20053;-70
2021/10/07 01:33:20;;;;;;;5.15;2.90;;;;;;;;;;5012859;28;20492;-70
2021/10/07 01:35:45;;;;;;;4.40;3.08;;;;;;;;;;4994889;28;20404;-70
2021/10/07 01:38:10;;;;;;;5.70;3.70;;;;;;;;;;5013010;28;20026;-70
2021/10/07 01:40:36;;;;;;;5.15;3.17;;;;;;;;;;5012268;28;20487;-70
2021/10/07 01:43:01;;;;;;;3.30;2.75;;;;;;;;;;5012280;28;20405;-70
2021/10/07 01:45:26;;;;;;;4.22;3.10;;;;;;;;;;5013065;28;20029;-70
2021/10/07 01:47:52;;;;;;;6.32;3.28;;;;;;;;;;5022348;28;20396;-70
2021/10/07 01:50:17;;;;;;;4.53;2.88;;;;;;;;;;5017176;28;20037;-69
2021/10/07 01:52:42;;;;;;;9.05;3.53;;;;;;;;;;4994632;28;20041;-69
2021/10/07 01:55:09;;;;;;;5.65;3.30;;;;;;;;;;5010437;28;20030;-69
2021/10/07 01:57:34;;;;;;;5.60;3.05;;;;;;;;;;4991443;28;20541;-69
2021/10/07 01:59:59;;;;;;;4.65;2.78;;;;;;;;;;4992781;28;20022;-69
2021/10/07 02:02:24;;;;;;;4.30;2.75;;;;;;;;;;4991194;28;20085;-69
2021/10/07 02:04:50;;;;;;;3.80;2.83;;;;;;;;;;4992261;28;20030;-69
2021/10/07 02:07:15;;;;;;;4.13;2.85;;;;;;;;;;4992929;28;20058;-69
2021/10/07 02:09:40;;;;;;;3.75;2.80;;;;;;;;;;4991365;28;20026;-69
2021/10/07 02:12:06;;;;;;;3.45;2.58;;;;;;;;;;4990746;28;20022;-69
2021/10/07 02:14:31;;;;;;;4.38;2.70;;;;;;;;;;4992760;28;20444;-69
2021/10/07 02:16:56;;;;;;;3.72;2.58;;;;;;;;;;4992352;28;20033;-69
2021/10/07 02:19:21;;;;;;;3.10;2.42;;;;;;;;;;4974826;28;20069;-70
2021/10/07 02:21:46;;;;;;;7.40;3.10;;;;;;;;;;4990401;28;20384;-70
2021/10/07 02:24:12;;;;;;;4.53;2.20;;;;;;;;;;4990329;28;20083;-70
2021/10/07 02:26:37;;;;;;;3.22;2.30;;;;;;;;;;4992510;28;20026;-70
2021/10/07 02:29:03;;;;;;;4.15;2.58;;;;;;;;;;4992055;28;20491;-72
2021/10/07 02:31:28;;;;;;;4.60;2.75;;;;;;;;;;4992156;28;20038;-70
2021/10/07 02:33:54;;;;;;;7.15;2.47;;;;;;;;;;4990372;28;20034;-70
2021/10/07 02:36:20;;;;;;;7.03;2.97;;;;;;;;;;4991402;28;20441;-70
2021/10/07 02:38:45;;;;;;;5.80;2.80;;;;;;;;;;4975276;28;20022;-70
2021/10/07 02:41:10;;;;;;;4.13;2.60;;;;;;;;;;4991808;28;20035;-71
2021/10/07 02:43:35;;;;;;;5.60;3.00;;;;;;;;;;4990630;28;20018;-70
2021/10/07 02:46:00;;;;;;;3.72;2.53;;;;;;;;;;4991503;28;20072;-70
2021/10/07 02:48:26;;;;;;;2.90;2.30;;;;;;;;;;4990633;28;20045;-71
2021/10/07 02:50:51;;;;;;;3.15;2.17;;;;;;;;;;4979193;28;20037;-71
2021/10/07 02:53:16;;;;;;;3.78;1.90;;;;;;;;;;4989965;28;20038;-70
2021/10/07 02:55:41;;;;;;;5.55;2.05;;;;;;;;;;4991307;28;20033;-70
2021/10/07 02:58:07;;;;;;;7.97;2.30;;;;;;;;;;5010689;28;20089;-70
2021/10/07 03:00:32;;;;;;;4.03;2.47;;;;;;;;;;5011848;28;20022;-70
2021/10/07 03:02:58;;;;;;;4.30;2.30;;;;;;;;;;4993854;28;20030;-70
2021/10/07 03:05:23;;;;;;;3.60;2.33;;;;;;;;;;4992519;28;20018;-70
2021/10/07 03:07:48;;;;;;;3.15;2.05;;;;;;;;;;4993708;28;20033;-70
2021/10/07 03:10:13;;;;;;;3.83;2.10;;;;;;;;;;4993848;28;20065;-71
2021/10/07 03:12:38;;;;;;;4.03;2.17;;;;;;;;;;5011523;28;20096;-70
2021/10/07 03:15:04;;;;;;;6.28;2.60;;;;;;;;;;5011832;28;20049;-71
2021/10/07 03:17:30;;;;;;;3.00;2.40;;;;;;;;;;5012379;28;20026;-70
2021/10/07 03:19:55;;;;;;;3.00;2.60;;;;;;;;;;5011008;28;20661;-71
2021/10/07 03:22:21;;;;;;;5.85;3.40;;;;;;;;;;4976833;28;20026;-70
2021/10/07 03:24:46;;;;;;;5.18;3.90;;;;;;;;;;5009921;28;20029;-70
2021/10/07 03:27:11;;;;;;;5.47;3.88;;;;;;;;;;5013357;28;20104;-70
2021/10/07 03:29:37;;;;;;;7.70;4.97;;;;;;;;;;4978497;28;20365;-70
2021/10/07 03:32:02;;;;;;;9.32;7.25;;;;;;;;;;5011415;28;20061;-70
2021/10/07 03:34:27;;;;;;;12.43;8.70;;;;;;;;;;4993052;28;20033;-70
2021/10/07 03:36:52;;;;;;;12.05;10.63;;;;;;;;;;4993514;28;20044;-70
2021/10/07 03:39:18;;;;;;;10.55;9.45;;;;;;;;;;5000829;28;20361;-70
2021/10/07 03:41:43;;;;;;;17.42;11.13;;;;;;;;;;5012560;28;20383;-70
2021/10/07 03:44:08;;;;;;;12.85;11.20;;;;;;;;;;5018281;28;20033;-70
2021/10/07 03:46:33;;;;;;;14.52;12.93;;;;;;;;;;5014125;28;20552;-70
2021/10/07 03:48:59;;;;;;;15.93;14.23;;;;;;;;;;5015153;28;20431;-70
2021/10/07 03:51:24;;;;;;;17.13;14.88;;;;;;;;;;5013604;28;20104;-70
2021/10/07 03:53:50;;;;;;;19.10;16.55;;;;;;;;;;4996952;28;20026;-70
2021/10/07 03:56:15;;;;;;;18.23;14.75;;;;;;;;;;5012077;28;20443;-70
2021/10/07 03:58:40;;;;;;;19.85;17.73;;;;;;;;;;5014600;28;20033;-70
2021/10/07 04:01:05;;;;;;;14.65;12.32;;;;;;;;;;4997087;28;20044;-70
2021/10/07 04:03:30;;;;;;;12.25;10.43;;;;;;;;;;5014217;28;20022;-70
2021/10/07 04:05:57;;;;;;;9.45;8.45;;;;;;;;;;4995960;28;20112;-70
2021/10/07 04:08:22;;;;;;;8.82;7.40;;;;;;;;;;5014561;28;20443;-70
2021/10/07 04:10:50;;;;;;;7.28;6.22;;;;;;;;;;5014728;28;20058;-70
2021/10/07 04:13:25;;;;;;;9.20;6.53;;;;;;;;;;4996193;28;20483;-69
2021/10/07 04:15:51;;;;;;;9.73;6.32;;;;;;;;;;4996881;28;20029;-69
2021/10/07 04:18:17;;;;;;;9.05;6.70;;;;;;;;;;5014319;28;20029;-69
2021/10/07 04:20:42;;;;;;;5.55;4.95;;;;;;;;;;5014074;28;20030;-70
2021/10/07 04:23:09;;;;;;;6.07;5.47;;;;;;;;;;4996165;28;20029;-70
2021/10/07 04:25:34;;;;;;;9.57;5.07;;;;;;;;;;5012455;28;20021;-69
2021/10/07 04:27:59;;;;;;;5.85;4.40;;;;;;;;;;4996705;28;20033;-70
2021/10/07 04:30:24;;;;;;;6.15;4.43;;;;;;;;;;5012668;28;20037;-69
2021/10/07 04:32:49;;;;;;;7.95;3.92;;;;;;;;;;5013702;28;20022;-69
2021/10/07 04:35:16;;;;;;;4.43;3.53;;;;;;;;;;5013622;28;20483;-69
2021/10/07 04:37:42;;;;;;;6.57;3.83;;;;;;;;;;4996463;28;20029;-70
2021/10/07 04:40:07;;;;;;;4.18;2.67;;;;;;;;;;4996064;28;20022;-69
2021/10/07 04:42:32;;;;;;;7.57;3.45;;;;;;;;;;5013616;28;20037;-70
2021/10/07 04:44:57;;;;;;;4.25;3.17;;;;;;;;;;4995603;28;20018;-69
2021/10/07 04:47:23;;;;;;;4.75;2.95;;;;;;;;;;5012842;28;20369;-70
2021/10/07 04:49:48;;;;;;;3.58;2.63;;;;;;;;;;4996225;28;20046;-70
2021/10/07 04:52:13;;;;;;;3.78;2.75;;;;;;;;;;5012795;28;20022;-70
2021/10/07 04:54:38;;;;;;;3.28;3.00;;;;;;;;;;5011702;28;20174;-70
2021/10/07 04:57:03;;;;;;;4.22;2.85;;;;;;;;;;4994313;28;20186;-70
2021/10/07 04:59:29;;;;;;;7.55;2.70;;;;;;;;;;4996106;28;20049;-70
2021/10/07 05:01:54;;;;;;;4.93;2.10;;;;;;;;;;4995435;28;20532;-69
2021/10/07 05:04:19;;;;;;;4.60;2.70;;;;;;;;;;4995164;28;20018;-68
2021/10/07 05:06:44;;;;;;;4.28;2.95;;;;;;;;;;5012526;28;20573;-72
2021/10/07 05:09:09;;;;;;;6.38;3.08;;;;;;;;;;5012419;28;20022;-71
2021/10/07 05:11:35;;;;;;;7.68;3.25;;;;;;;;;;5012766;28;20120;-73
2021/10/07 05:14:00;;;;;;;4.85;3.05;;;;;;;;;;5012919;28;20030;-70
2021/10/07 05:16:25;;;;;;;4.18;2.78;;;;;;;;;;4994821;28;20025;-75
2021/10/07 05:18:50;;;;;;;4.18;3.00;;;;;;;;;;5012973;28;20024;-71
2021/10/07 05:21:15;;;;;;;5.78;2.90;;;;;;;;;;5012084;28;20018;-70
2021/10/07 05:23:41;;;;;;;3.33;2.63;;;;;;;;;;5011978;28;20022;-69
2021/10/07 05:26:06;;;;;;;3.80;2.60;;;;;;;;;;4985134;28;20026;-69
2021/10/07 05:28:31;;;;;;;3.78;2.47;;;;;;;;;;4995248;28;20472;-69
2021/10/07 05:30:56;;;;;;;3.47;2.30;;;;;;;;;;4995092;28;20033;-69
2021/10/07 05:33:22;;;;;;;5.55;3.08;;;;;;;;;;4995322;28;20022;-69
2021/10/07 05:35:48;;;;;;;4.47;2.08;;;;;;;;;;5010904;28;20034;-68
2021/10/07 05:38:13;;;;;;;3.88;3.05;;;;;;;;;;4994453;28;20050;-68
2021/10/07 05:40:38;;;;;;;3.10;2.85;;;;;;;;;;5011716;28;20397;-69
2021/10/07 05:43:04;;;;;;;2.92;2.22;;;;;;;;;;5011648;28;20109;-69
2021/10/07 05:45:29;;;;;;;4.18;2.55;;;;;;;;;;5011986;28;20388;-69
2021/10/07 05:47:54;;;;;;;6.28;3.10;;;;;;;;;;5011436;28;20022;-69
2021/10/07 05:50:19;;;;;;;5.78;4.20;;;;;;;;;;4993672;28;20030;-69
2021/10/07 05:52:44;;;;;;;3.85;3.38;;;;;;;;;;4994222;28;20018;-69
2021/10/07 05:55:10;;;;;;;9.02;3.70;;;;;;;;;;5005876;28;20045;-69
2021/10/07 05:57:36;;;;;;;5.53;2.95;;;;;;;;;;5010923;28;20056;-68
2021/10/07 06:00:03;;;;;;;10.25;3.88;;;;;;;;;;4986838;28;20036;-68
2021/10/07 06:02:28;;;;;;;4.28;3.17;;;;;;;;;;5012350;28;20100;-68
2021/10/07 06:04:53;;;;;;;3.72;3.03;;;;;;;;;;5012075;28;20488;-69
2021/10/07 06:07:18;;;;;;;8.52;3.15;;;;;;;;;;5012488;28;20030;-69
2021/10/07 06:09:44;;;;;;;8.55;3.10;;;;;;;;;;5008493;28;20045;-72
2021/10/07 06:12:09;;;;;;;5.15;2.83;;;;;;;;;;4993617;28;20022;-69
2021/10/07 06:14:34;;;;;;;9.15;3.08;;;;;;;;;;4994786;28;20022;-69
2021/10/07 06:16:59;;;;;;;5.47;2.13;;;;;;;;;;4982949;28;20432;-68
2021/10/07 06:19:26;;;;;;;7.05;2.50;;;;;;;;;;5002673;28;20703;-69
2021/10/07 06:21:52;;;;;;;6.95;2.65;;;;;;;;;;4993946;28;20105;-69
2021/10/07 06:24:18;;;;;;;4.18;2.70;;;;;;;;;;4993317;28;20041;-70
2021/10/07 06:26:43;;;;;;;5.05;2.55;;;;;;;;;;5010352;28;20077;-69
2021/10/07 06:29:08;;;;;;;3.05;2.38;;;;;;;;;;5012771;28;20107;-69
2021/10/07 06:31:34;;;;;;;7.68;3.15;;;;;;;;;;4973107;28;20081;-69
2021/10/07 06:33:59;;;;;;;4.72;2.42;;;;;;;;;;5017885;28;20031;-69
2021/10/07 06:36:24;;;;;;;5.47;2.50;;;;;;;;;;5023641;28;20021;-70
2021/10/07 06:38:50;;;;;;;2.72;1.83;;;;;;;;;;5010627;28;20056;-69
2021/10/07 06:41:17;;;;;;;7.20;2.30;;;;;;;;;;4993966;28;20041;-69
2021/10/07 06:43:43;;;;;;;5.47;2.28;;;;;;;;;;5011796;28;20022;-69
2021/10/07 06:46:08;;;;;;;3.53;1.67;;;;;;;;;;5011983;28;20025;-69
2021/10/07 06:48:34;;;;;;;3.63;2.10;;;;;;;;;;4993838;28;20120;-68
2021/10/07 06:50:59;;;;;;;3.33;2.00;;;;;;;;;;4993298;28;20120;-68
2021/10/07 06:53:24;;;;;;;4.82;2.28;;;;;;;;;;4993930;28;20510;-68
2021/10/07 06:55:50;;;;;;;4.38;2.10;;;;;;;;;;4994640;28;20037;-68
2021/10/07 06:58:17;;;;;;;2.42;1.50;;;;;;;;;;4998715;28;20033;-68
2021/10/07 07:00:42;;;;;;;3.22;1.83;;;;;;;;;;5011539;28;20037;-69
2021/10/07 07:03:08;;;;;;;3.53;1.92;;;;;;;;;;4993600;28;20077;-68
2021/10/07 07:05:33;;;;;;;4.90;2.35;;;;;;;;;;5010786;28;20028;-68
2021/10/07 07:07:58;;;;;;;2.92;2.08;;;;;;;;;;5011632;28;20037;-68
2021/10/07 07:10:23;;;;;;;3.97;1.73;;;;;;;;;;4991671;28;20029;-68
2021/10/07 07:12:49;;;;;;;2.17;1.58;;;;;;;;;;4993538;28;20033;-69
2021/10/07 07:15:15;;;;;;;2.97;1.00;;;;;;;;;;5011601;28;20041;-69
2021/10/07 07:17:40;;;;;;;3.90;1.42;;;;;;;;;;5011559;28;20448;-69
2021/10/07 07:20:06;;;;;;;2.33;1.20;;;;;;;;;;4993723;28;20026;-69
2021/10/07 07:22:31;;;;;;;3.72;1.27;;;;;;;;;;4989575;28;20021;-69
2021/10/07 07:24:56;;;;;;;3.13;1.50;;;;;;;;;;5012109;28;20033;-69
2021/10/07 07:27:22;;;;;;;2.80;1.55;;;;;;;;;;5014726;28;20195;-69
2021/10/07 07:29:47;;;;;;;3.40;1.38;;;;;;;;;;5014555;28;20026;-69
2021/10/07 07:32:12;;;;;;;2.58;1.35;;;;;;;;;;4997318;28;20399;-69
2021/10/07 07:34:37;;;;;;;5.72;1.30;;;;;;;;;;4996959;28;20117;-69
2021/10/07 07:37:03;;;;;;;4.15;1.10;;;;;;;;;;5011823;28;20121;-70
2021/10/07 07:39:28;;;;;;;2.85;0.95;;;;;;;;;;5011729;28;20053;-70
2021/10/07 07:41:53;;;;;;;2.28;1.10;;;;;;;;;;4986882;28;20084;-69
2021/10/07 07:44:18;;;;;;;1.95;0.93;;;;;;;;;;4981179;28;20121;-69
2021/10/07 07:46:44;;;;;;;5.20;1.15;;;;;;;;;;5015093;28;20022;-70
2021/10/07 07:49:09;;;;;;;1.98;1.40;;;;;;;;;;4996551;28;20484;-74
2021/10/07 07:51:35;;;;;;;1.48;0.88;;;;;;;;;;5003781;28;20026;-71
2021/10/07 07:54:00;;;;;;;3.10;0.98;;;;;;;;;;4971700;28;20034;-71
2021/10/07 07:56:26;;;;;;;3.63;1.00;;;;;;;;;;5013909;28;20210;-70
2021/10/07 07:58:52;;;;;;;4.65;1.60;;;;;;;;;;5024468;28;20037;-70
2021/10/07 08:01:19;;;;;;;2.65;1.30;;;;;;;;;;4996722;28;20037;-70
2021/10/07 08:03:44;;;;;;;1.20;1.00;;;;;;;;;;4996305;28;20033;-70
2021/10/07 08:06:09;;;;;;;1.90;1.40;;;;;;;;;;4997442;28;20030;-70
2021/10/07 08:08:34;;;;;;;3.78;1.63;;;;;;;;;;4996380;28;20026;-69
2021/10/07 08:10:59;;;;;;;3.40;1.45;;;;;;;;;;5013509;28;20030;-70
2021/10/07 08:13:24;;;;;;;1.67;1.30;;;;;;;;;;5014181;28;20209;-70
2021/10/07 08:15:51;;;;;;;3.60;1.50;;;;;;;;;;4996561;28;20033;-70
2021/10/07 08:18:17;;;;;;;2.50;1.42;;;;;;;;;;4996306;28;20030;-70
2021/10/07 08:20:42;;;;;;;2.20;1.45;;;;;;;;;;5018376;28;20080;-71
2021/10/07 08:23:07;;;;;;;2.15;1.23;;;;;;;;;;5020026;28;20458;-70
2021/10/07 08:25:33;;;;;;;2.35;0.60;;;;;;;;;;4996598;28;20029;-68
2021/10/07 08:27:58;;;;;;;2.38;1.08;;;;;;;;;;4994805;28;20464;-70
2021/10/07 08:30:23;;;;;;;1.52;0.43;;;;;;;;;;4994884;28;20093;-70
2021/10/07 08:32:48;;;;;;;2.92;1.05;;;;;;;;;;5023420;28;20492;-69
2021/10/07 08:35:14;;;;;;;1.88;0.90;;;;;;;;;;4995566;28;20037;-70
2021/10/07 08:37:39;;;;;;;2.33;1.50;;;;;;;;;;5013148;28;20075;-69
2021/10/07 08:40:06;;;;;;;2.22;1.02;;;;;;;;;;5006939;28;20050;-69
2021/10/07 08:42:31;;;;;;;1.48;0.77;;;;;;;;;;5012222;28;20014;-69
2021/10/07 08:44:56;;;;;;;3.45;1.10;;;;;;;;;;5013270;28;20028;-70
2021/10/07 08:47:22;;;;;;;2.50;1.02;;;;;;;;;;5018634;28;20111;-70
2021/10/07 08:49:50;;;;;;;2.50;0.85;;;;;;;;;;5013353;28;20475;-69
2021/10/07 08:52:15;;;;;;;2.78;0.93;;;;;;;;;;5012023;28;20558;-70
2021/10/07 08:54:42;;;;;;;0.93;0.70;;;;;;;;;;4975995;28;20057;-69
2021/10/07 08:57:07;;;;;;;2.97;1.10;;;;;;;;;;4992085;28;20408;-69
2021/10/07 08:59:35;;;;;;;2.60;1.08;;;;;;;;;;4992332;28;20025;-67
2021/10/07 09:02:01;;;;;;;2.47;1.15;;;;;;;;;;4993297;28;20461;-69
2021/10/07 09:04:39;;;;;;;2.42;1.15;;;;;;;;;;4991938;28;20026;-69
2021/10/07 09:07:05;;;;;;;3.60;1.17;;;;;;;;;;4991959;28;20030;-71
2021/10/07 09:09:31;;;;;;;2.38;1.00;;;;;;;;;;4990476;28;20683;-70
2021/10/07 09:12:00;;;;;;;2.42;2.13;;;;;;;;;;4994607;28;20053;-70
2021/10/07 09:14:30;;;;;;;3.47;1.90;;;;;;;;;;4991960;28;20076;-70
2021/10/07 09:16:56;;;;;;;2.30;1.75;;;;;;;;;;4973883;28;20041;-69
2021/10/07 09:19:36;;;;;;;2.25;0.80;;;;;;;;;;4986765;28;20018;-69
2021/10/07 09:22:24;;;;;;;1.65;0.80;;;;;;;;;;4986158;28;20026;-70
2021/10/07 09:24:54;;;;;;;2.08;0.80;;;;;;;;;;4979457;28;20037;-70
2021/10/07 09:27:23;;;;;;;1.67;0.73;;;;;;;;;;4977942;28;20035;-70
2021/10/07 09:29:56;;;;;;;1.88;0.60;;;;;;;;;;4987191;28;20049;-70
2021/10/07 09:32:30;;;;;;;4.10;0.90;;;;;;;;;;4993107;28;20037;-70
2021/10/07 09:35:02;;;;;;;3.10;0.80;;;;;;;;;;4992624;28;20084;-70
2021/10/07 09:37:30;;;;;;;3.28;0.88;;;;;;;;;;4992992;28;20027;-70
2021/10/07 09:40:02;;;;;;;2.17;0.90;;;;;;;;;;4991985;28;20072;-70
2021/10/07 09:42:28;;;;;;;1.92;0.90;;;;;;;;;;4984454;28;20077;-70
2021/10/07 09:45:13;;;;;;;1.50;0.50;;;;;;;;;;4975366;28;20033;-69
2021/10/07 09:47:40;;;;;;;1.70;0.70;;;;;;;;;;4994627;28;20033;-70
2021/10/07 09:50:15;;;;;;;1.48;0.60;;;;;;;;;;4991354;28;20736;-69
2021/10/07 09:52:41;;;;;;;1.35;0.90;;;;;;;;;;4987689;28;20018;-70
2021/10/07 09:55:09;;;;;;;0.82;0.70;;;;;;;;;;4983310;28;20593;-68
2021/10/07 09:57:45;;;;;;;2.78;0.85;;;;;;;;;;4982487;28;20056;-70
2021/10/07 10:00:12;;;;;;;1.77;0.50;;;;;;;;;;4990875;28;20026;-69
2021/10/07 10:02:37;;;;;;;2.15;0.98;;;;;;;;;;4992830;28;20054;-69
2021/10/07 10:05:02;;;;;;;1.73;0.60;;;;;;;;;;4986370;28;20101;-69
2021/10/07 10:07:28;;;;;;;1.25;0.60;;;;;;;;;;4987282;28;20018;-69
2021/10/07 10:09:54;;;;;;;3.70;0.73;;;;;;;;;;4988844;28;20054;-69
2021/10/07 10:12:20;;;;;;;1.60;0.50;;;;;;;;;;4986925;28;20023;-68
2021/10/07 10:14:47;;;;;;;2.95;0.82;;;;;;;;;;5003554;28;20428;-69
2021/10/07 10:17:12;;;;;;;2.47;0.50;;;;;;;;;;4990614;28;20122;-68
2021/10/07 10:19:38;;;;;;;1.55;0.60;;;;;;;;;;4990116;28;20113;-70
2021/10/07 10:22:03;;;;;;;1.98;0.73;;;;;;;;;;4984129;28;20069;-68
2021/10/07 10:24:28;;;;;;;2.63;0.50;;;;;;;;;;4985336;28;20030;-68
2021/10/07 10:27:02;;;;;;;2.95;0.93;;;;;;;;;;4979742;28;20038;-69
2021/10/07 10:29:30;;;;;;;2.92;0.60;;;;;;;;;;4982932;28;20032;-68
2021/10/07 10:31:55;;;;;;;1.10;0.50;;;;;;;;;;4993602;28;20026;-69
2021/10/07 10:34:22;;;;;;;1.43;0.57;;;;;;;;;;4984670;28;20026;-69
2021/10/07 10:36:56;;;;;;;2.05;0.65;;;;;;;;;;4988094;28;20293;-68
2021/10/07 10:39:24;;;;;;;1.65;0.40;;;;;;;;;;4991443;28;20028;-71
2021/10/07 10:41:59;;;;;;;1.70;0.63;;;;;;;;;;4993681;28;20524;-69
2021/10/07 10:44:28;;;;;;;0.90;0.43;;;;;;;;;;5006131;28;20030;-68
2021/10/07 10:46:57;;;;;;;2.00;0.40;;;;;;;;;;4960542;28;20084;-69
2021/10/07 10:49:34;;;;;;;2.42;0.50;;;;;;;;;;4988396;28;20033;-69
2021/10/07 10:52:00;;;;;;;2.05;0.50;;;;;;;;;;4981735;28;20037;-68
2021/10/07 10:54:29;;;;;;;5.60;0.50;;;;;;;;;;4981432;28;20430;-69
2021/10/07 10:56:59;;;;;;;0.70;0.30;;;;;;;;;;4988249;28;20057;-69
2021/10/07 10:59:25;;;;;;;0.88;0.20;;;;;;;;;;5010050;28;20014;-69
2021/10/07 11:02:09;;;;;;;1.05;0.32;;;;;;;;;;4998150;28;20389;-69
2021/10/07 11:04:43;;;;;;;0.90;0.20;;;;;;;;;;4997381;28;20026;-69
2021/10/07 11:07:15;;;;;;;1.40;0.25;;;;;;;;;;4997834;28;20287;-69
2021/10/07 11:09:55;;;;;;;0.77;0.43;;;;;;;;;;4999207;28;20014;-70
2021/10/07 11:12:21;;;;;;;0.50;0.20;;;;;;;;;;4994913;28;20053;-70
2021/10/07 11:14:46;;;;;;;0.93;0.20;;;;;;;;;;4991433;28;20452;-69
2021/10/07 11:17:13;;;;;;;2.05;0.32;;;;;;;;;;4998158;28;20216;-69
2021/10/07 11:19:38;;;;;;;1.77;0.40;;;;;;;;;;4998147;28;20018;-69
2021/10/07 11:22:08;;;;;;;2.07;0.30;;;;;;;;;;4994509;28;20022;-69
2021/10/07 11:24:33;;;;;;;2.08;0.40;;;;;;;;;;4993839;28;21085;-69
2021/10/07 11:26:58;;;;;;;1.35;0.38;;;;;;;;;;4991968;28;20530;-69
2021/10/07 11:29:24;;;;;;;1.20;0.30;;;;;;;;;;4996446;28;20404;-70
2021/10/07 11:31:49;;;;;;;2.90;0.30;;;;;;;;;;4997668;28;20270;-69
2021/10/07 11:34:15;;;;;;;1.15;0.52;;;;;;;;;;4986005;28;20041;-69
2021/10/07 11:36:40;;;;;;;0.93;0.30;;;;;;;;;;4997391;28;20108;-69
2021/10/07 11:39:05;;;;;;;1.87;0.87;;;;;;;;;;4998181;28;20763;-69
2021/10/07 11:41:34;;;;;;;1.00;0.47;;;;;;;;;;4997921;28;20468;-69
2021/10/07 11:44:04;;;;;;;1.08;0.30;;;;;;;;;;4995737;28;20042;-70
2021/10/07 11:46:29;;;;;;;1.63;0.40;;;;;;;;;;4997973;28;20033;-69
2021/10/07 11:48:55;;;;;;;2.63;0.40;;;;;;;;;;4996811;28;20030;-69
2021/10/07 11:51:22;;;;;;;1.50;0.40;;;;;;;;;;5011236;28;20638;-70
2021/10/07 11:53:50;;;;;;;1.88;0.30;;;;;;;;;;4997423;28;20050;-72
2021/10/07 11:56:17;;;;;;;1.30;0.30;;;;;;;;;;4985584;28;20053;-71
2021/10/07 11:58:51;;;;;;;1.33;0.20;;;;;;;;;;4998168;28;20157;-69
2021/10/07 12:01:16;;;;;;;;;;;;;;;;;;5002257;28;20484;-69
2021/10/07 12:03:41;;;;;;;0.95;0.32;;;;;;;;;;5016411;28;20315;-69
2021/10/07 12:06:08;;;;;;;1.17;0.30;;;;;;;;;;5016293;28;20039;-70
2021/10/07 12:08:34;;;;;;;0.90;0.30;;;;;;;;;;5014315;28;20033;-70
2021/10/07 12:11:01;;;;;;;1.90;0.30;;;;;;;;;;5017133;28;20108;-69
2021/10/07 12:13:28;;;;;;;1.55;0.40;;;;;;;;;;5024718;28;20080;-70
2021/10/07 12:16:04;;;;;;;1.17;0.30;;;;;;;;;;4996253;28;20396;-72
2021/10/07 12:18:30;;;;;;;0.75;0.38;;;;;;;;;;5011993;28;20037;-71
2021/10/07 12:20:57;;;;;;;1.48;0.50;;;;;;;;;;4997773;28;20026;-72
2021/10/07 12:23:22;;;;;;;1.42;0.40;;;;;;;;;;4996172;28;20109;-72
2021/10/07 12:25:52;;;;;;;1.75;0.38;;;;;;;;;;5005213;28;20122;-70
2021/10/07 12:28:17;;;;;;;1.10;0.60;;;;;;;;;;4990133;28;20092;-70
2021/10/07 12:31:08;;;;;;;1.20;0.40;;;;;;;;;;5012186;28;20026;-71
2021/10/07 12:33:34;;;;;;;1.13;0.40;;;;;;;;;;5008264;28;20042;-69
2021/10/07 12:36:04;;;;;;;1.48;0.40;;;;;;;;;;4992113;28;20032;-69
2021/10/07 12:38:45;;;;;;;1.73;0.65;;;;;;;;;;4986355;28;20113;-69
2021/10/07 12:41:10;;;;;;;1.48;0.30;;;;;;;;;;4987480;28;20031;-70
2021/10/07 12:43:49;;;;;;;1.38;0.40;;;;;;;;;;5011956;28;20033;-70
2021/10/07 12:46:19;;;;;;;2.13;0.40;;;;;;;;;;5009696;28;20018;-70
2021/10/07 12:48:48;;;;;;;1.58;0.65;;;;;;;;;;4991554;28;20360;-70
2021/10/07 12:51:14;;;;;;;1.95;0.80;;;;;;;;;;5008624;28;20026;-70
2021/10/07 12:53:40;;;;;;;3.00;0.70;;;;;;;;;;4994197;28;20026;-70
2021/10/07 12:56:13;;;;;;;1.33;0.47;;;;;;;;;;4987081;28;20072;-70
2021/10/07 12:58:48;;;;;;;1.33;0.40;;;;;;;;;;5004482;28;20026;-70
2021/10/07 13:01:14;;;;;;;1.52;0.30;;;;;;;;;;5008890;28;20014;-70
2021/10/07 13:03:39;;;;;;;2.08;0.40;;;;;;;;;;5011938;28;20044;-70
2021/10/07 13:06:08;;;;;;;1.93;0.40;;;;;;;;;;4994029;28;20034;-69
2021/10/07 13:08:33;;;;;;;1.90;0.43;;;;;;;;;;5011965;28;20022;-70
2021/10/07 13:10:59;;;;;;;2.20;0.60;;;;;;;;;;5011969;28;20028;-70
2021/10/07 13:13:25;;;;;;;1.60;0.57;;;;;;;;;;5007733;28;20064;-70
2021/10/07 13:15:50;;;;;;;1.65;0.40;;;;;;;;;;5026939;28;20095;-69
2021/10/07 13:18:15;;;;;;;1.80;0.40;;;;;;;;;;5011033;28;20036;-70
2021/10/07 13:20:41;;;;;;;1.80;0.40;;;;;;;;;;4993097;28;20273;-69
2021/10/07 13:23:06;;;;;;;1.23;0.30;;;;;;;;;;5011300;28;20450;-69
2021/10/07 13:25:37;;;;;;;1.37;0.43;;;;;;;;;;5003410;28;20460;-69
2021/10/07 13:28:02;;;;;;;1.40;0.32;;;;;;;;;;4991790;28;20281;-70
2021/10/07 13:30:27;;;;;;;1.92;0.40;;;;;;;;;;5011534;28;20460;-70
2021/10/07 13:32:54;;;;;;;1.65;0.30;;;;;;;;;;4993662;28;20025;-70
2021/10/07 13:35:20;;;;;;;1.90;0.50;;;;;;;;;;4989335;28;20027;-70
2021/10/07 13:37:49;;;;;;;1.48;0.30;;;;;;;;;;4993152;28;20079;-69
2021/10/07 13:40:15;;;;;;;2.50;0.75;;;;;;;;;;5002413;28;20149;-70
2021/10/07 13:42:40;;;;;;;1.10;0.30;;;;;;;;;;5010759;28;20018;-70
2021/10/07 13:45:05;;;;;;;3.67;0.50;;;;;;;;;;5011024;28;20617;-70
2021/10/07 13:47:31;;;;;;;1.52;0.50;;;;;;;;;;4999943;28;20269;-70
2021/10/07 13:49:56;;;;;;;1.93;0.50;;;;;;;;;;5000468;28;20030;-70
2021/10/07 13:52:25;;;;;;;1.33;0.40;;;;;;;;;;5010193;28;20272;-69
2021/10/07 13:54:51;;;;;;;2.10;0.40;;;;;;;;;;4985494;28;20316;-70
2021/10/07 13:57:16;;;;;;;2.83;0.40;;;;;;;;;;4984946;28;20074;-70
2021/10/07 13:59:41;;;;;;;1.53;0.30;;;;;;;;;;4979141;28;20030;-70
2021/10/07 14:02:07;;;;;;;1.60;0.30;;;;;;;;;;4989275;28;20269;-70
2021/10/07 14:04:32;;;;;;;1.75;0.40;;;;;;;;;;4987941;28;20701;-70
2021/10/07 14:06:57;;;;;;;2.67;0.30;;;;;;;;;;4990806;28;20061;-70
2021/10/07 14:09:22;;;;;;;1.63;0.40;;;;;;;;;;4991755;28;20746;-70
2021/10/07 14:11:51;;;;;;;1.42;0.43;;;;;;;;;;4984113;28;20050;-70
2021/10/07 14:14:16;;;;;;;2.60;0.52;;;;;;;;;;4982300;28;20048;-70
2021/10/07 14:16:41;;;;;;;1.47;0.40;;;;;;;;;;4990442;28;20034;-70
2021/10/07 14:19:06;;;;;;;1.67;0.43;;;;;;;;;;4982845;28;20273;-70
2021/10/07 14:21:32;;;;;;;1.75;0.50;;;;;;;;;;4977940;28;20282;-70
2021/10/07 14:23:57;;;;;;;2.17;0.40;;;;;;;;;;4977160;28;20050;-70
2021/10/07 14:26:22;;;;;;;1.85;0.70;;;;;;;;;;4981863;28;20364;-70
2021/10/07 14:28:47;;;;;;;1.83;0.85;;;;;;;;;;4986811;28;20030;-70
2021/10/07 14:31:12;;;;;;;4.32;0.88;;;;;;;;;;4981464;28;20369;-70
2021/10/07 14:33:38;;;;;;;1.80;0.52;;;;;;;;;;4990438;28;20408;-68
2021/10/07 14:36:03;;;;;;;1.48;0.65;;;;;;;;;;5004651;28;20034;-69
2021/10/07 14:38:28;;;;;;;3.15;0.80;;;;;;;;;;5001759;28;20078;-69
2021/10/07 14:40:53;;;;;;;2.15;0.60;;;;;;;;;;4987699;28;20466;-70
2021/10/07 14:43:19;;;;;;;2.10;0.60;;;;;;;;;;4991745;28;20087;-70
2021/10/07 14:45:44;;;;;;;2.95;0.60;;;;;;;;;;4989981;28;20623;-72